Time;durP1;ratioP1;P1;durP2;ratioP2;P2;SDS_P1;SDS_P2;PMS_P1;PMS_P2;Temp;Humidity;BMP_temperature;BMP_pressure;BME280_temperature;BME280_humidity;BME280_pressure;Samples;Min_cycle;Max_cycle;Signal;HPM_P1;HPM_P2
2023/10/10 00:00:55;;;;;;;13.07;6.30;;;15.00;99.90;;;;;;5094883;28;20418;-66
2023/10/10 00:03:21;;;;;;;21.05;6.40;;;15.00;99.90;;;;;;5094241;28;20032;-67
2023/10/10 00:05:47;;;;;;;20.25;6.35;;;14.90;99.90;;;;;;5094583;28;20020;-66
2023/10/10 00:08:15;;;;;;;14.88;6.43;;;14.90;99.90;;;;;;5094522;28;20461;-67
2023/10/10 00:10:50;;;;;;;12.02;5.93;;;15.00;99.90;;;;;;5094559;28;20027;-67
2023/10/10 00:13:19;;;;;;;14.52;5.38;;;14.90;99.90;;;;;;5094059;28;20488;-68
2023/10/10 00:15:50;;;;;;;29.45;6.90;;;14.90;99.90;;;;;;5094377;28;20028;-67
2023/10/10 00:18:20;;;;;;;16.67;6.13;;;14.90;99.90;;;;;;5092246;28;20535;-69
2023/10/10 00:21:20;;;;;;;20.63;6.60;;;14.90;99.90;;;;;;5094303;28;20476;-67
2023/10/10 00:23:54;;;;;;;18.02;6.32;;;14.90;99.90;;;;;;5094269;28;20074;-67
2023/10/10 00:26:21;;;;;;;16.73;5.90;;;14.80;99.90;;;;;;5093931;28;20115;-68
2023/10/10 00:28:53;;;;;;;16.30;6.38;;;14.80;99.90;;;;;;5094235;28;20035;-67
2023/10/10 00:31:20;;;;;;;18.52;5.68;;;14.80;99.90;;;;;;5093644;28;20028;-68
2023/10/10 00:33:48;;;;;;;15.77;5.80;;;14.90;99.90;;;;;;5094162;28;20089;-65
2023/10/10 00:36:28;;;;;;;19.67;6.07;;;14.90;99.90;;;;;;5094235;28;20388;-66
2023/10/10 00:38:59;;;;;;;23.70;6.75;;;14.90;99.90;;;;;;5092958;28;20024;-67
2023/10/10 00:41:29;;;;;;;16.80;5.82;;;14.90;99.90;;;;;;5094278;28;20059;-67
2023/10/10 00:43:54;;;;;;;17.85;6.03;;;14.90;99.90;;;;;;5093919;28;20020;-67
2023/10/10 00:46:24;;;;;;;17.13;5.88;;;14.90;99.90;;;;;;5093176;28;20143;-68
2023/10/10 00:48:59;;;;;;;11.20;5.55;;;14.90;99.90;;;;;;5094022;28;20084;-67
2023/10/10 00:51:29;;;;;;;17.92;5.55;;;14.90;99.90;;;;;;5093309;28;20031;-68
2023/10/10 00:54:08;;;;;;;12.73;5.30;;;14.90;99.90;;;;;;5093874;28;20024;-66
2023/10/10 00:56:35;;;;;;;16.95;5.68;;;14.90;99.90;;;;;;5089788;28;20078;-68
2023/10/10 00:59:03;;;;;;;15.60;5.57;;;14.90;99.90;;;;;;5093207;28;20374;-66
2023/10/10 01:01:29;;;;;;;15.85;5.05;;;14.90;99.90;;;;;;5093066;28;20036;-67
2023/10/10 01:03:55;;;;;;;19.48;6.05;;;14.90;99.90;;;;;;5093618;28;20031;-67
2023/10/10 01:06:26;;;;;;;16.52;5.50;;;14.90;99.90;;;;;;5091906;28;20084;-67
2023/10/10 01:09:21;;;;;;;13.73;5.70;;;15.00;99.90;;;;;;5093512;28;20460;-67
2023/10/10 01:11:48;;;;;;;16.17;6.60;;;14.90;99.90;;;;;;5092693;28;20028;-67
2023/10/10 01:14:26;;;;;;;15.95;5.80;;;14.90;99.90;;;;;;5093320;28;20028;-65
2023/10/10 01:16:57;;;;;;;13.27;5.55;;;15.00;99.90;;;;;;5092279;28;20078;-67
2023/10/10 01:19:28;;;;;;;15.82;5.50;;;15.00;99.90;;;;;;5093095;28;20116;-68
2023/10/10 01:22:03;;;;;;;19.88;6.30;;;15.00;99.90;;;;;;5093455;28;20028;-67
2023/10/10 01:24:31;;;;;;;15.40;5.82;;;15.00;99.90;;;;;;5093027;28;20028;-68
2023/10/10 01:27:05;;;;;;;13.98;5.32;;;15.00;99.90;;;;;;5093344;28;20023;-67
2023/10/10 01:29:40;;;;;;;17.95;6.05;;;15.00;99.90;;;;;;5092663;28;20032;-67
2023/10/10 01:32:10;;;;;;;14.65;5.68;;;15.00;99.90;;;;;;5093116;28;20039;-67
2023/10/10 01:34:43;;;;;;;20.02;6.07;;;15.00;99.90;;;;;;5092852;28;20085;-67
2023/10/10 01:37:35;;;;;;;15.68;5.43;;;15.00;99.90;;;;;;5080650;28;20032;-67
2023/10/10 01:40:05;;;;;;;19.90;6.25;;;15.10;99.90;;;;;;5072676;28;20047;-67
2023/10/10 01:42:31;;;;;;;16.88;6.47;;;15.10;99.90;;;;;;5072782;28;20127;-67
2023/10/10 01:45:07;;;;;;;13.77;5.57;;;15.00;99.90;;;;;;5072927;28;20100;-67
2023/10/10 01:47:35;;;;;;;16.45;4.95;;;15.10;99.90;;;;;;5072576;28;20025;-67
2023/10/10 01:50:10;;;;;;;18.75;5.82;;;15.10;99.90;;;;;;5073239;28;20024;-66
2023/10/10 01:52:37;;;;;;;17.42;5.70;;;15.10;99.90;;;;;;5072049;28;20609;-66
2023/10/10 01:55:05;;;;;;;15.15;5.05;;;15.10;99.90;;;;;;5072739;28;20342;-66
2023/10/10 01:57:30;;;;;;;14.07;5.70;;;15.10;99.90;;;;;;5072170;28;20052;-65
2023/10/10 01:59:57;;;;;;;18.17;6.40;;;15.10;99.90;;;;;;5072538;28;20059;-67
2023/10/10 02:02:27;;;;;;;13.45;5.78;;;15.00;99.90;;;;;;5072605;28;20549;-66
2023/10/10 02:04:55;;;;;;;19.80;6.53;;;15.10;99.90;;;;;;5072826;28;20107;-66
2023/10/10 02:07:23;;;;;;;16.35;5.43;;;15.10;99.90;;;;;;5072605;28;20029;-67
2023/10/10 02:12:47;;;;;;;18.92;6.32;;;15.10;99.90;;;;;;5067100;28;20427;-67
2023/10/10 02:15:16;;;;;;;16.85;6.40;;;15.10;99.90;;;;;;5072485;28;20078;-67
2023/10/10 02:17:51;;;;;;;16.50;5.20;;;15.10;99.90;;;;;;5072097;28;20032;-67
2023/10/10 02:22:51;;;;;;;19.67;5.03;;;15.10;99.90;;;;;;5072094;28;20033;-66
2023/10/10 02:27:55;;;;;;;13.77;5.32;;;15.10;99.90;;;;;;5072511;28;20029;-67
2023/10/10 02:30:34;;;;;;;12.88;5.80;;;15.10;99.90;;;;;;5072390;28;20025;-67
2023/10/10 02:35:54;;;;;;;17.98;7.50;;;15.10;99.90;;;;;;5071953;28;20028;-67
2023/10/10 02:38:33;;;;;;;15.23;5.30;;;15.00;99.90;;;;;;5072658;28;20082;-67
2023/10/10 02:41:25;;;;;;;17.15;5.32;;;15.00;99.90;;;;;;5091787;28;20376;-68
2023/10/10 02:46:35;;;;;;;17.42;5.30;;;14.90;99.90;;;;;;5096296;28;20114;-67
2023/10/10 02:49:09;;;;;;;22.02;6.80;;;14.90;99.90;;;;;;5096175;28;20437;-67
2023/10/10 02:51:40;;;;;;;17.67;5.63;;;14.90;99.90;;;;;;5092261;28;20031;-67
2023/10/10 02:54:27;;;;;;;18.63;5.97;;;14.90;99.90;;;;;;5096104;28;20032;-67
2023/10/10 02:56:58;;;;;;;15.25;6.30;;;14.90;99.90;;;;;;5096030;28;20028;-68
2023/10/10 02:59:43;;;;;;;12.02;5.38;;;14.90;99.90;;;;;;5096040;28;20024;-68
2023/10/10 03:02:10;;;;;;;14.48;5.82;;;14.90;99.90;;;;;;5096037;28;20053;-68
2023/10/10 03:07:27;;;;;;;17.15;5.80;;;14.80;99.90;;;;;;5095553;28;20113;-67
2023/10/10 03:12:30;;;;;;;19.40;6.15;;;14.80;99.90;;;;;;5095145;28;20028;-69
2023/10/10 03:15:12;;;;;;;18.40;6.22;;;14.70;99.90;;;;;;5095439;28;20495;-67
2023/10/10 03:25:45;;;;;;;18.25;6.28;;;14.70;99.90;;;;;;5095219;28;20024;-68
2023/10/10 03:31:04;;;;;;;14.85;6.03;;;14.70;99.90;;;;;;5094953;28;20074;-67
2023/10/10 05:25:31;;;;;;;13.55;6.10;;;14.70;99.90;;;;;;5074755;28;20480;-66
2023/10/10 05:27:59;;;;;;;17.40;6.10;;;14.70;99.90;;;;;;5073878;28;20021;-69
2023/10/10 05:30:27;;;;;;;11.75;5.63;;;14.80;99.90;;;;;;5077276;28;20023;-68
2023/10/10 05:33:03;;;;;;;17.02;5.95;;;14.80;99.90;;;;;;5075875;28;20048;-67
2023/10/10 05:35:34;;;;;;;18.70;6.93;;;14.80;99.90;;;;;;5074273;28;20033;-67
2023/10/10 05:38:00;;;;;;;14.25;5.72;;;14.90;99.90;;;;;;5074649;28;20056;-69
2023/10/10 05:40:27;;;;;;;17.73;6.50;;;14.90;99.90;;;;;;5074420;28;20035;-67
2023/10/10 05:42:53;;;;;;;12.55;5.97;;;14.90;99.90;;;;;;5084669;28;20040;-68
2023/10/10 05:45:20;;;;;;;15.98;5.93;;;15.00;99.90;;;;;;5094306;28;20033;-68
2023/10/10 05:47:46;;;;;;;17.75;5.85;;;15.00;99.90;;;;;;5093292;28;20081;-69
2023/10/10 05:50:13;;;;;;;18.42;6.05;;;15.10;99.90;;;;;;5093078;28;20043;-67
2023/10/10 05:52:43;;;;;;;19.42;6.13;;;15.10;99.90;;;;;;5093146;28;20036;-68
2023/10/10 05:55:12;;;;;;;17.63;6.15;;;15.10;99.90;;;;;;5093908;28;20492;-69
2023/10/10 05:57:39;;;;;;;18.15;6.32;;;15.10;99.90;;;;;;5094323;28;20416;-68
2023/10/10 06:00:10;;;;;;;14.00;5.85;;;15.20;99.90;;;;;;5093673;28;20028;-68
2023/10/10 06:02:47;;;;;;;17.38;6.55;;;15.20;99.90;;;;;;5092933;28;20484;-68
2023/10/10 06:05:16;;;;;;;16.48;7.10;;;15.30;99.90;;;;;;5093346;28;20077;-67
2023/10/10 06:07:43;;;;;;;18.58;6.53;;;15.30;99.90;;;;;;5093814;28;20077;-68
2023/10/10 06:10:18;;;;;;;17.20;6.70;;;15.30;99.90;;;;;;5093612;28;20028;-67
2023/10/10 06:12:47;;;;;;;21.67;6.38;;;15.30;99.90;;;;;;5093027;28;20081;-68
2023/10/10 06:15:17;;;;;;;19.23;6.97;;;15.40;99.90;;;;;;5093857;28;20574;-68
2023/10/10 06:17:48;;;;;;;18.58;6.68;;;15.50;99.90;;;;;;5097001;28;20028;-70
2023/10/10 06:20:16;;;;;;;19.20;5.88;;;15.60;99.90;;;;;;5098096;28;20380;-68
2023/10/10 06:22:47;;;;;;;16.40;5.93;;;15.70;99.90;;;;;;5097542;28;20040;-68
2023/10/10 06:25:17;;;;;;;14.13;5.65;;;15.70;99.90;;;;;;5096624;28;20237;-68
2023/10/10 06:27:45;;;;;;;15.00;5.22;;;15.80;99.90;;;;;;5094297;28;20036;-67
2023/10/10 06:30:17;;;;;;;18.95;5.70;;;15.80;99.90;;;;;;5095561;28;20039;-69
2023/10/10 06:32:44;;;;;;;14.52;6.03;;;15.90;99.90;;;;;;5096352;28;20032;-67
2023/10/10 06:37:45;;;;;;;15.90;5.85;;;16.00;99.90;;;;;;5096528;28;20028;-68
2023/10/10 06:40:11;;;;;;;20.38;6.53;;;16.00;99.90;;;;;;5096268;28;20048;-67
2023/10/10 06:42:38;;;;;;;19.38;5.90;;;16.10;99.90;;;;;;5096035;28;20443;-67
2023/10/10 06:45:08;;;;;;;15.85;5.90;;;16.00;99.90;;;;;;5095902;28;20020;-67
2023/10/10 06:47:39;;;;;;;19.67;6.13;;;16.10;99.90;;;;;;5096069;28;20476;-68
2023/10/10 06:50:11;;;;;;;15.40;5.93;;;16.10;99.90;;;;;;5095747;28;20313;-68
2023/10/10 06:52:38;;;;;;;19.05;5.90;;;16.00;99.90;;;;;;5096042;28;20112;-68
2023/10/10 06:55:12;;;;;;;19.40;7.07;;;16.10;99.90;;;;;;5092198;28;20024;-68
2023/10/10 06:57:38;;;;;;;21.30;5.97;;;16.10;99.90;;;;;;5095609;28;20048;-67
2023/10/10 07:02:41;;;;;;;13.27;5.68;;;16.10;99.90;;;;;;5095635;28;20031;-68
2023/10/10 07:05:15;;;;;;;16.60;5.55;;;16.00;99.90;;;;;;5095316;28;20203;-67
2023/10/10 07:07:43;;;;;;;16.30;5.88;;;16.00;99.90;;;;;;5096006;28;20387;-68
2023/10/10 07:10:09;;;;;;;12.10;4.80;;;16.00;99.90;;;;;;5095075;28;20024;-69
2023/10/10 07:12:38;;;;;;;15.05;5.07;;;16.10;99.90;;;;;;5095577;28;20086;-68
2023/10/10 07:15:06;;;;;;;10.88;4.85;;;16.00;99.90;;;;;;5095353;28;20020;-67
2023/10/10 07:17:32;;;;;;;13.60;4.72;;;16.00;99.90;;;;;;5095318;28;20043;-68
2023/10/10 07:22:34;;;;;;;13.95;5.28;;;16.00;99.90;;;;;;5095626;28;20120;-67
2023/10/10 07:25:08;;;;;;;11.82;5.15;;;16.00;99.90;;;;;;5095201;28;20074;-67
2023/10/10 07:27:35;;;;;;;14.30;5.13;;;16.00;99.90;;;;;;5095163;28;20490;-68
2023/10/10 07:30:15;;;;;;;13.23;5.47;;;16.00;99.90;;;;;;5095070;28;20393;-69
2023/10/10 07:32:43;;;;;;;15.48;5.40;;;16.00;99.90;;;;;;5095422;28;20123;-68
2023/10/10 07:35:14;;;;;;;14.18;5.05;;;16.00;99.90;;;;;;5094974;28;20032;-67
2023/10/10 07:37:44;;;;;;;14.65;5.50;;;16.00;99.90;;;;;;5095559;28;20347;-68
2023/10/10 07:42:40;;;;;;;12.80;4.60;;;16.00;99.90;;;;;;5095290;28;20036;-67
2023/10/10 07:45:15;;;;;;;12.27;4.88;;;16.00;99.90;;;;;;5094608;28;20024;-68
2023/10/10 07:50:26;;;;;;;;;;;15.90;99.90;;;;;;5095436;28;20081;-67
2023/10/10 07:52:52;;;;;;;10.40;4.90;;;15.90;99.90;;;;;;5094338;28;19908;-68
2023/10/10 07:55:18;;;;;;;12.55;5.85;;;15.90;99.90;;;;;;5094603;28;20350;-67
2023/10/10 07:57:56;;;;;;;12.82;5.95;;;15.90;99.90;;;;;;5094850;28;20055;-67
2023/10/10 08:00:27;;;;;;;13.82;6.10;;;15.90;99.90;;;;;;5095053;28;20063;-68
2023/10/10 08:02:53;;;;;;;16.40;6.07;;;15.90;99.90;;;;;;5093242;28;20134;-68
2023/10/10 08:05:19;;;;;;;8.23;4.43;;;15.90;99.90;;;;;;5094584;28;20112;-68
2023/10/10 08:07:48;;;;;;;10.50;5.22;;;15.90;99.90;;;;;;5094595;28;20024;-67
2023/10/10 08:10:29;;;;;;;11.30;5.78;;;15.90;99.90;;;;;;5093896;28;20020;-68
2023/10/10 08:12:56;;;;;;;10.88;5.35;;;15.90;99.90;;;;;;5094439;28;20030;-69
2023/10/10 08:15:25;;;;;;;12.20;5.05;;;15.90;99.90;;;;;;5094312;28;20400;-66
2023/10/10 08:17:53;;;;;;;11.98;5.13;;;15.90;99.90;;;;;;5094492;28;20040;-68
2023/10/10 08:23:05;;;;;;;9.75;5.60;;;15.90;99.90;;;;;;5093675;28;20039;-67
2023/10/10 08:25:32;;;;;;;13.23;5.63;;;15.90;99.90;;;;;;5084291;28;20028;-67
2023/10/10 08:27:58;;;;;;;13.88;5.60;;;16.00;99.90;;;;;;5073872;28;20412;-67
2023/10/10 08:30:28;;;;;;;9.82;4.93;;;16.00;99.90;;;;;;5073847;28;20024;-68
2023/10/10 08:32:57;;;;;;;9.38;4.78;;;16.00;99.90;;;;;;5073429;28;20025;-71
2023/10/10 08:35:25;;;;;;;7.78;5.13;;;16.00;99.90;;;;;;5073777;28;20380;-68
2023/10/10 08:37:51;;;;;;;9.45;5.22;;;16.00;99.90;;;;;;5073315;28;20021;-68
2023/10/10 08:40:21;;;;;;;8.88;4.45;;;16.00;99.90;;;;;;5072614;28;20358;-68
2023/10/10 08:42:50;;;;;;;11.60;5.05;;;16.00;99.90;;;;;;5073650;28;20073;-68
2023/10/10 08:45:23;;;;;;;11.73;5.05;;;16.00;99.90;;;;;;5073162;28;20081;-68
2023/10/10 08:48:01;;;;;;;11.20;5.03;;;16.00;99.90;;;;;;5073605;28;20052;-68
2023/10/10 08:50:37;;;;;;;11.88;5.13;;;16.00;99.90;;;;;;5073769;28;20032;-68
2023/10/10 08:53:03;;;;;;;10.60;5.20;;;16.10;99.90;;;;;;5073128;28;20028;-68
2023/10/10 08:55:29;;;;;;;14.23;5.15;;;16.00;99.90;;;;;;5073548;28;20033;-68
2023/10/10 08:57:55;;;;;;;10.30;6.05;;;16.10;99.90;;;;;;5072849;28;20048;-70
2023/10/10 09:00:27;;;;;;;11.75;5.65;;;16.10;99.90;;;;;;5073402;28;20029;-67
2023/10/10 09:02:56;;;;;;;13.15;5.88;;;16.10;99.90;;;;;;5075386;28;20393;-67
2023/10/10 09:05:24;;;;;;;12.77;5.80;;;16.20;99.90;;;;;;5073408;28;20021;-67
2023/10/10 09:07:53;;;;;;;13.27;6.03;;;16.30;99.90;;;;;;5073257;28;20030;-69
2023/10/10 09:10:28;;;;;;;16.67;6.00;;;16.40;99.90;;;;;;5072741;28;20060;-67
2023/10/10 09:12:58;;;;;;;14.70;6.20;;;16.50;99.90;;;;;;5073052;28;20041;-67
2023/10/10 09:15:24;;;;;;;17.60;5.57;;;16.60;99.90;;;;;;5071817;28;20032;-67
2023/10/10 09:17:55;;;;;;;11.52;5.47;;;16.60;99.90;;;;;;5073094;28;20031;-68
2023/10/10 09:20:28;;;;;;;;;;;16.60;99.90;;;;;;5073243;28;20028;-68
2023/10/10 09:22:58;;;;;;;16.10;6.00;;;16.60;99.90;;;;;;5072920;28;19905;-68
2023/10/10 09:25:48;;;;;;;11.88;5.85;;;16.60;99.90;;;;;;5073038;28;20028;-68
2023/10/10 09:28:15;;;;;;;16.60;6.43;;;16.60;99.90;;;;;;5071769;28;20072;-68
2023/10/10 09:30:58;;;;;;;13.73;5.25;;;16.60;99.90;;;;;;5072969;28;20381;-69
2023/10/10 09:33:33;;;;;;;16.42;6.10;;;16.60;99.90;;;;;;5073363;28;20037;-68
2023/10/10 09:36:15;;;;;;;11.35;5.35;;;16.60;99.90;;;;;;5072468;28;20410;-69
2023/10/10 09:38:53;;;;;;;14.32;5.85;;;16.60;99.90;;;;;;5076414;28;20020;-67
2023/10/10 09:47:13;;;;;;;13.73;6.45;;;16.70;99.90;;;;;;5092647;28;20070;-67
2023/10/10 09:49:45;;;;;;;18.20;7.32;;;16.70;99.90;;;;;;5092963;28;20017;-68
2023/10/10 09:55:08;;;;;;;16.10;5.95;;;16.80;99.90;;;;;;5092447;28;20530;-68
2023/10/10 09:57:44;;;;;;;19.35;6.68;;;16.90;99.90;;;;;;5092414;28;20093;-67
2023/10/10 10:00:13;;;;;;;20.27;6.88;;;16.90;99.90;;;;;;5092448;28;20024;-67
2023/10/10 10:02:49;;;;;;;17.27;6.57;;;17.00;99.90;;;;;;5092719;28;20081;-67
2023/10/10 10:05:20;;;;;;;18.77;7.28;;;17.10;99.90;;;;;;5092254;28;20093;-67
2023/10/10 10:08:13;;;;;;;20.00;7.70;;;17.20;99.90;;;;;;5092856;28;20032;-68
2023/10/10 10:11:11;;;;;;;16.83;6.88;;;17.30;99.90;;;;;;5092589;28;20028;-67
2023/10/10 10:13:54;;;;;;;17.42;6.72;;;17.30;99.90;;;;;;5092499;28;20032;-67
2023/10/10 10:17:12;;;;;;;16.45;6.47;;;17.40;99.90;;;;;;5092211;28;20020;-68
2023/10/10 10:19:45;;;;;;;25.52;6.72;;;17.50;99.90;;;;;;5069870;28;20496;-68
2023/10/10 10:22:17;;;;;;;14.82;6.63;;;17.50;99.90;;;;;;5092325;28;20426;-68
2023/10/10 10:24:44;;;;;;;16.48;7.25;;;17.60;99.90;;;;;;5092746;28;20040;-68
2023/10/10 10:27:34;;;;;;;17.13;6.80;;;17.70;99.90;;;;;;5092179;28;20039;-68
2023/10/10 10:32:53;;;;;;;18.80;7.28;;;17.90;99.90;;;;;;5072328;28;20033;-67
2023/10/10 10:35:24;;;;;;;16.42;6.93;;;18.00;99.90;;;;;;5071970;28;20118;-67
2023/10/10 10:37:58;;;;;;;20.38;6.75;;;18.20;99.90;;;;;;5071942;28;20381;-69
2023/10/10 10:43:16;;;;;;;17.80;6.32;;;18.50;99.90;;;;;;5071846;28;20039;-68
2023/10/10 10:45:45;;;;;;;19.25;6.20;;;18.60;99.90;;;;;;5072166;28;20028;-68
2023/10/10 10:48:34;;;;;;;21.45;7.60;;;18.70;99.90;;;;;;5071643;28;20037;-69
2023/10/10 10:51:23;;;;;;;18.95;6.88;;;18.80;99.90;;;;;;5072151;28;20036;-68
2023/10/10 10:53:56;;;;;;;16.52;6.75;;;18.90;99.90;;;;;;5072528;28;20025;-68
2023/10/10 11:01:28;;;;;;;17.38;5.70;;;19.30;99.90;;;;;;5072088;28;20036;-69
2023/10/10 11:03:56;;;;;;;15.23;5.38;;;19.40;99.90;;;;;;5075398;28;20396;-68
2023/10/10 11:06:24;;;;;;;19.30;6.95;;;19.50;99.90;;;;;;5077201;28;20021;-68
2023/10/10 11:14:00;;;;;;;17.27;6.40;;;19.80;99.90;;;;;;5075526;28;20107;-68
2023/10/10 11:16:39;;;;;;;20.95;6.38;;;20.00;99.90;;;;;;5074950;28;20028;-68
2023/10/10 11:19:12;;;;;;;17.50;6.57;;;20.10;99.90;;;;;;5075358;28;20032;-67
2023/10/10 11:21:48;;;;;;;20.13;6.75;;;20.10;99.90;;;;;;5075405;28;20031;-67
2023/10/10 11:24:15;;;;;;;18.00;6.05;;;20.20;99.90;;;;;;5074878;28;20035;-67
2023/10/10 11:26:43;;;;;;;17.85;5.15;;;20.30;99.90;;;;;;5075012;28;20033;-67
2023/10/10 11:29:27;;;;;;;23.60;6.35;;;20.30;99.90;;;;;;5074684;28;20024;-67
2023/10/10 11:32:08;;;;;;;21.73;6.60;;;20.40;99.90;;;;;;5074831;28;20036;-67
2023/10/10 11:34:46;;;;;;;17.20;6.07;;;20.50;99.80;;;;;;5074952;28;20515;-67
2023/10/10 11:37:20;;;;;;;17.85;6.57;;;20.50;99.30;;;;;;5074271;28;20323;-67
2023/10/10 11:39:47;;;;;;;17.88;6.43;;;20.50;98.60;;;;;;5074708;28;20132;-67
2023/10/10 11:42:33;;;;;;;16.95;6.30;;;20.50;98.80;;;;;;5079028;28;20464;-68
2023/10/10 11:45:07;;;;;;;19.27;6.47;;;20.60;98.90;;;;;;5094984;28;20028;-67
2023/10/10 11:47:42;;;;;;;19.80;5.95;;;20.60;98.00;;;;;;5094911;28;20426;-67
2023/10/10 11:50:11;;;;;;;14.55;5.40;;;20.70;98.40;;;;;;5094522;28;20088;-69
2023/10/10 11:52:57;;;;;;;16.40;5.38;;;20.70;98.00;;;;;;5094740;28;20036;-68
2023/10/10 11:55:28;;;;;;;23.60;6.55;;;20.80;96.70;;;;;;5093838;28;20541;-68
2023/10/10 11:58:06;;;;;;;15.52;5.38;;;20.80;95.80;;;;;;5094478;28;20143;-68
2023/10/10 12:00:44;;;;;;;21.20;5.78;;;20.70;95.50;;;;;;5093863;28;20473;-68
2023/10/10 12:06:00;;;;;;;15.07;5.65;;;20.70;95.50;;;;;;5094470;28;20080;-68
2023/10/10 12:08:26;;;;;;;22.00;6.30;;;20.70;95.50;;;;;;5093960;28;20023;-68
2023/10/10 12:11:02;;;;;;;20.60;5.43;;;20.70;95.00;;;;;;5093914;28;20103;-68
2023/10/10 12:15:57;;;;;;;16.35;5.85;;;20.60;95.20;;;;;;5093918;28;20032;-68
2023/10/10 12:18:30;;;;;;;12.32;6.65;;;20.60;95.60;;;;;;5093827;28;20032;-68
2023/10/10 12:20:58;;;;;;;19.67;6.97;;;20.50;96.00;;;;;;5094372;28;20028;-68
2023/10/10 12:23:24;;;;;;;17.10;6.35;;;20.40;96.30;;;;;;5090347;28;20073;-67
2023/10/10 12:25:50;;;;;;;23.77;6.53;;;20.40;96.40;;;;;;5094208;28;20035;-67
2023/10/10 12:28:18;;;;;;;18.50;6.63;;;20.30;96.20;;;;;;5093647;28;20028;-67
2023/10/10 12:30:44;;;;;;;19.80;6.47;;;20.30;96.70;;;;;;5094037;28;20051;-67
2023/10/10 12:33:15;;;;;;;16.98;6.75;;;20.20;96.70;;;;;;5093852;28;20097;-67
2023/10/10 12:35:43;;;;;;;17.17;6.50;;;20.20;96.90;;;;;;5094393;28;20024;-68
2023/10/10 12:38:09;;;;;;;12.90;5.60;;;20.10;97.20;;;;;;5093911;28;20539;-68
2023/10/10 12:40:35;;;;;;;19.33;6.28;;;20.10;97.40;;;;;;5093425;28;20028;-68
2023/10/10 12:43:01;;;;;;;13.65;5.53;;;20.10;97.70;;;;;;5093794;28;20032;-68
2023/10/10 12:45:29;;;;;;;14.32;5.47;;;20.00;97.70;;;;;;5093323;28;20020;-66
2023/10/10 12:47:57;;;;;;;21.88;6.32;;;20.00;97.70;;;;;;5093475;28;20425;-67
2023/10/10 12:50:26;;;;;;;18.52;6.47;;;20.00;97.60;;;;;;5093149;28;20048;-68
2023/10/10 12:53:07;;;;;;;14.10;6.30;;;20.00;97.20;;;;;;5093506;28;20046;-68
2023/10/10 12:55:34;;;;;;;19.75;5.82;;;20.00;97.30;;;;;;5093020;28;20039;-68
2023/10/10 12:58:09;;;;;;;18.40;6.07;;;20.00;97.30;;;;;;5093217;28;20043;-68
2023/10/10 13:00:34;;;;;;;17.55;6.47;;;20.00;96.90;;;;;;5093344;28;20032;-67
2023/10/10 13:03:00;;;;;;;16.42;5.70;;;20.00;97.30;;;;;;5093144;28;20388;-67
2023/10/10 13:05:29;;;;;;;16.60;6.53;;;20.00;97.20;;;;;;5093091;28;20441;-67
2023/10/10 13:07:58;;;;;;;15.27;6.07;;;20.00;97.00;;;;;;5092142;28;20027;-67
2023/10/10 13:10:28;;;;;;;13.68;6.05;;;20.00;96.80;;;;;;5090493;28;20028;-67
2023/10/10 13:12:54;;;;;;;14.48;6.15;;;20.00;96.50;;;;;;5091034;28;20032;-68
2023/10/10 13:15:27;;;;;;;14.20;5.50;;;20.00;96.50;;;;;;5092689;28;20016;-68
2023/10/10 13:17:54;;;;;;;14.27;5.70;;;19.90;96.40;;;;;;5093231;28;20035;-68
2023/10/10 13:20:21;;;;;;;17.58;5.25;;;19.90;96.30;;;;;;5092619;28;20110;-68
2023/10/10 13:22:56;;;;;;;12.63;5.68;;;19.90;96.20;;;;;;5093064;28;20028;-67
2023/10/10 13:25:21;;;;;;;16.10;6.03;;;19.90;96.40;;;;;;5091077;28;20526;-68
2023/10/10 13:27:52;;;;;;;17.83;5.18;;;19.80;96.50;;;;;;5093061;28;20028;-68
2023/10/10 13:30:18;;;;;;;17.47;5.83;;;19.80;96.40;;;;;;5092595;28;20036;-69
2023/10/10 13:32:44;;;;;;;12.57;5.13;;;19.80;96.50;;;;;;5091617;28;20488;-68
2023/10/10 13:35:10;;;;;;;14.48;5.78;;;19.80;96.60;;;;;;5092865;28;20028;-67
2023/10/10 13:37:41;;;;;;;11.15;5.57;;;19.80;96.90;;;;;;5092481;28;20028;-68
2023/10/10 13:40:07;;;;;;;15.90;5.15;;;19.80;97.00;;;;;;5093009;28;20028;-68
2023/10/10 13:42:33;;;;;;;12.75;5.30;;;19.90;96.80;;;;;;5092248;28;20032;-68
2023/10/10 13:45:11;;;;;;;14.07;5.28;;;19.90;96.70;;;;;;5093167;28;20069;-69
2023/10/10 13:47:39;;;;;;;18.10;5.60;;;19.90;97.00;;;;;;5092512;28;20024;-68
2023/10/10 13:52:50;;;;;;;13.52;5.10;;;19.90;96.70;;;;;;5073021;28;20086;-67
2023/10/10 13:55:18;;;;;;;12.20;5.30;;;19.90;96.50;;;;;;5073221;28;20025;-68
2023/10/10 13:57:44;;;;;;;12.27;5.20;;;19.90;96.20;;;;;;5072902;28;20066;-68
2023/10/10 14:00:29;;;;;;;11.20;4.60;;;19.90;96.10;;;;;;5072858;28;20485;-68
2023/10/10 14:02:59;;;;;;;12.55;5.35;;;19.90;95.60;;;;;;5072653;28;20024;-67
2023/10/10 14:05:29;;;;;;;8.77;4.88;;;19.90;95.30;;;;;;5072251;28;20453;-67
2023/10/10 14:07:55;;;;;;;11.38;5.00;;;19.90;95.20;;;;;;5072592;28;20032;-67
2023/10/10 14:10:21;;;;;;;10.48;5.30;;;19.90;95.10;;;;;;5072605;28;20024;-69
2023/10/10 14:12:46;;;;;;;11.48;4.85;;;19.90;94.90;;;;;;5072635;28;20029;-68
2023/10/10 14:15:12;;;;;;;10.88;4.97;;;19.90;95.00;;;;;;5073964;28;20031;-68
2023/10/10 14:17:38;;;;;;;11.80;5.30;;;19.90;95.00;;;;;;5072117;28;20486;-68
2023/10/10 14:20:19;;;;;;;12.13;5.07;;;19.90;95.10;;;;;;5072310;28;20381;-67
2023/10/10 14:22:46;;;;;;;15.75;5.65;;;19.90;95.00;;;;;;5072542;28;20032;-67
2023/10/10 14:25:12;;;;;;;12.82;4.50;;;19.90;95.10;;;;;;5071328;28;20024;-67
2023/10/10 14:27:43;;;;;;;13.35;5.00;;;19.90;95.00;;;;;;5072039;28;20054;-67
2023/10/10 14:30:21;;;;;;;9.18;4.57;;;19.90;94.60;;;;;;5072323;28;20082;-67
2023/10/10 14:32:54;;;;;;;10.90;4.50;;;19.90;94.70;;;;;;5072071;28;20037;-68
2023/10/10 14:35:23;;;;;;;13.55;4.72;;;19.90;94.30;;;;;;5082392;28;20037;-69
2023/10/10 14:37:56;;;;;;;12.73;5.05;;;19.90;94.40;;;;;;5085438;28;20033;-68
2023/10/10 14:40:23;;;;;;;14.68;5.35;;;19.90;94.50;;;;;;5077518;28;20376;-68
2023/10/10 14:42:52;;;;;;;10.05;4.97;;;19.90;94.70;;;;;;5077229;28;20047;-68
2023/10/10 14:45:24;;;;;;;10.57;5.07;;;19.80;94.80;;;;;;5077493;28;20059;-69
2023/10/10 14:47:51;;;;;;;12.82;4.63;;;19.90;95.00;;;;;;5075705;28;20531;-69
2023/10/10 14:50:23;;;;;;;13.10;5.10;;;19.80;95.20;;;;;;5077341;28;20037;-66
2023/10/10 14:52:50;;;;;;;11.90;5.13;;;19.80;95.10;;;;;;5074687;28;20036;-70
2023/10/10 14:55:27;;;;;;;12.85;5.28;;;19.90;95.10;;;;;;5074679;28;20020;-69
2023/10/10 14:57:57;;;;;;;17.00;6.07;;;19.90;95.20;;;;;;5077132;28;20052;-69
2023/10/10 15:00:29;;;;;;;14.48;5.10;;;19.90;95.90;;;;;;5071110;28;20396;-70
2023/10/10 15:02:55;;;;;;;13.70;5.00;;;19.90;96.00;;;;;;5075676;28;20109;-70
2023/10/10 15:05:24;;;;;;;10.90;5.30;;;19.90;95.90;;;;;;5072349;28;20373;-70
2023/10/10 15:07:52;;;;;;;11.52;4.90;;;19.90;95.80;;;;;;5071538;28;20040;-73
2023/10/10 15:10:25;;;;;;;12.63;5.43;;;19.90;95.80;;;;;;5072792;28;20062;-75
2023/10/10 15:12:53;;;;;;;13.70;5.43;;;19.90;95.60;;;;;;5075355;28;20085;-69
2023/10/10 15:15:18;;;;;;;16.83;6.30;;;19.90;95.60;;;;;;5075188;28;20464;-75
2023/10/10 15:17:45;;;;;;;13.15;5.75;;;19.90;95.70;;;;;;5071304;28;20040;-73
2023/10/10 15:20:14;;;;;;;10.23;4.90;;;19.90;96.00;;;;;;5073704;28;20027;-72
2023/10/10 15:22:41;;;;;;;13.60;5.50;;;19.80;96.10;;;;;;5072285;28;20489;-70
2023/10/10 15:25:14;;;;;;;15.25;5.63;;;19.80;96.10;;;;;;5078569;28;20090;-73
2023/10/10 15:27:41;;;;;;;13.00;5.60;;;19.80;96.10;;;;;;5075004;28;20460;-70
2023/10/10 15:30:08;;;;;;;15.13;6.32;;;19.80;96.30;;;;;;5071353;28;20036;-71
2023/10/10 15:32:43;;;;;;;15.20;6.07;;;19.80;96.30;;;;;;5082103;28;20436;-72
2023/10/10 15:35:11;;;;;;;16.65;6.70;;;19.80;96.20;;;;;;5075981;28;20125;-73
2023/10/10 15:37:42;;;;;;;12.02;5.72;;;19.80;96.10;;;;;;5082604;28;20033;-72
2023/10/10 15:40:22;;;;;;;17.85;6.15;;;19.80;96.10;;;;;;5068265;28;20485;-72
2023/10/10 15:42:52;;;;;;;18.27;6.03;;;19.80;96.40;;;;;;5072244;28;20032;-74
2023/10/10 15:45:20;;;;;;;16.73;6.18;;;19.80;96.70;;;;;;5075001;28;20024;-75
2023/10/10 15:47:52;;;;;;;14.43;5.60;;;19.80;96.60;;;;;;5070214;28;20527;-73
2023/10/10 15:50:23;;;;;;;14.90;6.38;;;19.70;96.70;;;;;;5071998;28;20055;-71
2023/10/10 15:52:49;;;;;;;13.60;5.57;;;19.70;96.80;;;;;;5076022;28;20039;-72
2023/10/10 15:55:25;;;;;;;11.20;6.38;;;19.70;96.90;;;;;;5076466;28;20029;-70
2023/10/10 15:57:54;;;;;;;14.00;5.93;;;19.70;96.90;;;;;;5071730;28;20066;-69
2023/10/10 16:00:29;;;;;;;16.77;6.28;;;19.60;96.90;;;;;;5071215;28;20025;-69
2023/10/10 16:02:56;;;;;;;17.23;6.43;;;19.70;97.00;;;;;;5076609;28;20039;-67
2023/10/10 16:05:22;;;;;;;15.38;6.57;;;19.60;96.90;;;;;;5075632;28;20433;-67
2023/10/10 16:07:49;;;;;;;14.75;6.75;;;19.60;97.00;;;;;;5078057;28;20353;-67